Time;durP1;ratioP1;P1;durP2;ratioP2;P2;SDS_P1;SDS_P2;PMS_P1;PMS_P2;Temp;Humidity;BMP_temperature;BMP_pressure;BME280_temperature;BME280_humidity;BME280_pressure;Samples;Min_cycle;Max_cycle;Signal;HPM_P1;HPM_P2
2022/10/29 00:02:07;;;;;;;8.02;3.83;;;15.60;99.90;;;;;;5021673;28;20056;-64
2022/10/29 00:04:33;;;;;;;7.25;4.75;;;15.60;99.90;;;;;;5019384;28;20426;-64
2022/10/29 00:06:58;;;;;;;4.55;2.47;;;15.60;99.90;;;;;;5024171;28;20398;-64
2022/10/29 00:09:24;;;;;;;6.57;3.33;;;15.50;99.90;;;;;;5027134;28;20025;-64
2022/10/29 00:11:49;;;;;;;6.22;3.33;;;15.50;99.90;;;;;;5026900;28;20104;-64
2022/10/29 00:14:15;;;;;;;6.78;4.05;;;15.50;99.90;;;;;;5025581;28;20651;-64
2022/10/29 00:16:40;;;;;;;7.32;3.47;;;15.50;99.90;;;;;;5022700;28;20031;-64
2022/10/29 00:19:06;;;;;;;8.45;4.32;;;15.50;99.90;;;;;;5031306;28;20401;-64
2022/10/29 00:21:33;;;;;;;9.02;4.38;;;15.50;99.90;;;;;;5028834;28;20041;-64
2022/10/29 00:23:58;;;;;;;8.65;4.53;;;15.50;99.90;;;;;;5024467;28;20024;-64
2022/10/29 00:26:27;;;;;;;7.75;4.40;;;15.50;99.90;;;;;;5044376;28;20382;-64
2022/10/29 00:28:55;;;;;;;6.88;3.80;;;15.50;99.90;;;;;;5029237;28;20037;-64
2022/10/29 00:31:23;;;;;;;5.60;3.20;;;15.50;99.90;;;;;;5028794;28;20552;-64
2022/10/29 00:33:49;;;;;;;5.53;3.05;;;15.30;99.90;;;;;;5028916;28;20382;-64
2022/10/29 00:36:17;;;;;;;4.57;2.88;;;15.20;99.90;;;;;;5029026;28;20053;-64
2022/10/29 00:38:42;;;;;;;6.85;3.50;;;15.20;99.90;;;;;;5029118;28;20018;-64
2022/10/29 00:41:12;;;;;;;6.65;4.20;;;15.20;99.90;;;;;;5026895;28;20036;-64
2022/10/29 00:43:40;;;;;;;10.88;4.47;;;15.20;99.90;;;;;;5023102;28;20116;-64
2022/10/29 00:46:14;;;;;;;6.80;3.63;;;15.20;99.90;;;;;;5026485;28;20053;-64
2022/10/29 00:48:45;;;;;;;7.25;3.28;;;15.30;99.90;;;;;;5028411;28;20025;-64
2022/10/29 00:51:13;;;;;;;4.00;2.90;;;15.20;99.90;;;;;;5014276;28;20092;-64
2022/10/29 00:53:46;;;;;;;4.93;2.55;;;15.20;99.90;;;;;;5029302;28;20048;-64
2022/10/29 00:56:12;;;;;;;6.53;3.33;;;15.20;99.90;;;;;;5031558;28;20508;-64
2022/10/29 00:58:38;;;;;;;6.75;3.40;;;15.20;99.90;;;;;;5028578;28;20025;-64
2022/10/29 01:01:04;;;;;;;10.57;5.15;;;15.20;99.90;;;;;;5024125;28;20096;-64
2022/10/29 01:03:30;;;;;;;9.65;4.25;;;15.20;99.90;;;;;;5028464;28;20108;-64
2022/10/29 01:05:56;;;;;;;7.75;4.25;;;15.20;99.90;;;;;;5028702;28;20030;-64
2022/10/29 01:08:22;;;;;;;7.65;4.13;;;15.20;99.90;;;;;;5043488;28;20037;-64
2022/10/29 01:10:56;;;;;;;6.15;3.42;;;15.20;99.90;;;;;;5031043;28;20029;-64
2022/10/29 01:13:34;;;;;;;13.20;3.00;;;15.10;99.90;;;;;;5023223;28;20037;-64
2022/10/29 01:16:18;;;;;;;12.60;2.08;;;15.10;99.90;;;;;;5040799;28;20026;-64
2022/10/29 01:19:11;;;;;;;5.25;2.13;;;15.00;99.90;;;;;;5036696;28;20022;-64
2022/10/29 01:21:49;;;;;;;10.23;1.88;;;14.80;99.90;;;;;;5019883;28;20033;-64
2022/10/29 01:24:50;;;;;;;8.48;4.13;;;14.70;99.90;;;;;;5025577;28;20117;-64
2022/10/29 01:27:25;;;;;;;10.88;6.35;;;14.50;99.90;;;;;;5028645;28;20029;-63
2022/10/29 01:30:08;;;;;;;12.55;6.38;;;14.30;99.90;;;;;;5029652;28;20025;-64
2022/10/29 01:32:52;;;;;;;7.47;3.70;;;14.30;99.90;;;;;;5040577;28;20683;-64
2022/10/29 01:35:39;;;;;;;6.22;3.75;;;14.30;99.90;;;;;;5027305;28;20098;-64
2022/10/29 01:38:04;;;;;;;4.72;3.67;;;14.30;99.90;;;;;;5018666;28;20026;-64
2022/10/29 01:40:59;;;;;;;8.93;4.93;;;14.30;99.90;;;;;;5027990;28;20044;-64
2022/10/29 01:43:34;;;;;;;8.57;4.90;;;14.40;99.90;;;;;;5027679;28;20042;-64
2022/10/29 01:46:20;;;;;;;8.10;4.97;;;14.40;99.90;;;;;;5033357;28;20395;-63
2022/10/29 01:48:50;;;;;;;6.80;4.93;;;14.50;99.90;;;;;;5020751;28;20108;-64
2022/10/29 01:51:26;;;;;;;10.82;7.35;;;14.50;99.90;;;;;;5024450;28;20101;-64
2022/10/29 01:53:52;;;;;;;17.80;9.38;;;14.50;99.90;;;;;;5024418;28;20040;-64
2022/10/29 01:56:18;;;;;;;13.32;9.52;;;14.40;99.90;;;;;;5022038;28;20105;-64
2022/10/29 01:58:48;;;;;;;17.95;10.63;;;14.40;99.90;;;;;;5024342;28;20104;-64
2022/10/29 02:01:48;;;;;;;15.65;10.50;;;14.40;99.90;;;;;;5043710;28;20104;-63
2022/10/29 02:04:42;;;;;;;11.45;6.38;;;14.30;99.90;;;;;;5026432;28;20032;-63
2022/10/29 02:07:28;;;;;;;11.75;5.90;;;14.20;99.90;;;;;;5033033;28;20030;-64
2022/10/29 02:10:02;;;;;;;11.68;7.75;;;14.20;99.90;;;;;;5023758;28;20029;-64
2022/10/29 02:12:33;;;;;;;14.85;9.75;;;14.10;99.90;;;;;;5025801;28;20029;-63
2022/10/29 02:15:08;;;;;;;10.18;6.88;;;14.10;99.90;;;;;;5024287;28;20076;-64
2022/10/29 02:17:34;;;;;;;8.65;6.07;;;14.10;99.90;;;;;;5025642;28;20588;-63
2022/10/29 02:20:05;;;;;;;10.88;6.40;;;14.20;99.90;;;;;;5026793;28;20029;-64
2022/10/29 02:22:31;;;;;;;10.25;7.43;;;14.20;99.90;;;;;;5023667;28;20068;-63
2022/10/29 02:24:56;;;;;;;15.98;10.40;;;14.10;99.90;;;;;;5027164;28;21180;-64
2022/10/29 02:27:22;;;;;;;15.90;8.38;;;14.10;99.90;;;;;;5015079;28;20037;-63
2022/10/29 02:29:47;;;;;;;18.10;6.72;;;14.10;99.90;;;;;;5023990;28;20022;-64
2022/10/29 02:32:13;;;;;;;10.13;7.25;;;14.10;99.90;;;;;;5038014;28;20021;-63
2022/10/29 02:34:38;;;;;;;12.27;9.43;;;14.00;99.90;;;;;;5009832;28;20014;-63
2022/10/29 02:37:03;;;;;;;14.25;10.30;;;14.00;99.90;;;;;;5027236;28;20504;-63
2022/10/29 02:39:30;;;;;;;14.65;8.65;;;14.00;99.90;;;;;;5022547;28;20116;-63
2022/10/29 02:41:55;;;;;;;13.95;8.50;;;14.00;99.90;;;;;;5035943;28;20022;-63
2022/10/29 02:44:21;;;;;;;12.27;7.30;;;14.00;99.90;;;;;;5023240;28;20062;-63
2022/10/29 02:46:46;;;;;;;9.35;6.63;;;14.00;99.90;;;;;;5025265;28;20450;-64
2022/10/29 02:49:11;;;;;;;9.30;5.95;;;14.10;99.90;;;;;;5027135;28;20556;-64
2022/10/29 02:51:37;;;;;;;9.50;5.78;;;14.10;99.90;;;;;;5020234;28;20037;-63
2022/10/29 02:54:03;;;;;;;8.07;5.10;;;14.10;99.90;;;;;;5026677;28;20033;-63
2022/10/29 02:56:28;;;;;;;17.10;9.18;;;14.20;99.90;;;;;;5022594;28;20147;-63
2022/10/29 02:58:54;;;;;;;13.23;9.27;;;14.20;99.90;;;;;;5029318;28;20025;-63
2022/10/29 03:01:19;;;;;;;15.13;9.52;;;14.10;99.90;;;;;;5037918;28;20071;-64
2022/10/29 03:03:45;;;;;;;12.38;8.48;;;14.10;99.90;;;;;;5022624;28;20026;-63
2022/10/29 03:06:18;;;;;;;13.02;7.57;;;14.10;99.90;;;;;;5010298;28;20072;-63
2022/10/29 03:08:44;;;;;;;11.27;7.18;;;14.10;99.90;;;;;;5026753;28;20104;-64
2022/10/29 03:11:10;;;;;;;8.57;6.55;;;14.10;99.90;;;;;;5023382;28;20021;-63
2022/10/29 03:13:36;;;;;;;7.63;6.30;;;14.20;99.90;;;;;;5023676;28;20036;-63
2022/10/29 03:16:02;;;;;;;14.65;10.43;;;14.10;99.90;;;;;;5020040;28;20036;-63
2022/10/29 03:18:27;;;;;;;15.77;9.57;;;14.10;99.90;;;;;;5018950;28;20026;-64
2022/10/29 03:20:53;;;;;;;25.38;8.63;;;14.10;99.90;;;;;;5025996;28;20099;-63
2022/10/29 03:23:18;;;;;;;28.65;6.97;;;14.10;99.90;;;;;;5009025;28;20030;-63
2022/10/29 03:25:48;;;;;;;20.90;5.70;;;14.00;99.90;;;;;;5025117;28;20018;-64
2022/10/29 03:28:13;;;;;;;9.88;7.50;;;14.00;99.90;;;;;;5025102;28;20025;-63
2022/10/29 03:30:38;;;;;;;17.40;10.40;;;13.90;99.90;;;;;;5023497;28;20393;-64
2022/10/29 03:33:04;;;;;;;18.02;12.85;;;13.80;99.90;;;;;;5025381;28;20029;-64
2022/10/29 03:35:30;;;;;;;23.10;14.50;;;13.90;99.90;;;;;;5023186;28;20018;-63
2022/10/29 03:37:55;;;;;;;19.80;12.63;;;13.90;99.90;;;;;;5023327;28;20022;-63
2022/10/29 03:40:21;;;;;;;20.38;14.27;;;13.90;99.90;;;;;;5023043;28;20033;-63
2022/10/29 03:42:46;;;;;;;29.13;14.35;;;13.90;99.90;;;;;;5021115;28;20021;-63
2022/10/29 03:45:12;;;;;;;24.05;16.10;;;13.90;99.90;;;;;;5021942;28;20049;-63
2022/10/29 03:47:37;;;;;;;22.67;15.38;;;13.90;99.90;;;;;;5014391;28;20041;-63
2022/10/29 03:50:03;;;;;;;22.70;15.27;;;13.90;99.90;;;;;;5026213;28;20064;-63
2022/10/29 03:52:29;;;;;;;21.80;15.35;;;14.00;99.90;;;;;;5042474;28;20036;-64
2022/10/29 03:54:54;;;;;;;27.88;16.05;;;13.90;99.90;;;;;;5031327;28;20025;-63
2022/10/29 03:57:20;;;;;;;25.90;15.18;;;13.90;99.90;;;;;;5026965;28;20022;-63
2022/10/29 03:59:47;;;;;;;22.77;15.57;;;13.90;99.90;;;;;;5026694;28;20025;-63
2022/10/29 04:02:12;;;;;;;24.70;15.73;;;13.90;99.90;;;;;;5026959;28;20104;-63
2022/10/29 04:04:38;;;;;;;20.85;15.82;;;13.90;99.90;;;;;;5024944;28;20109;-63
2022/10/29 04:07:04;;;;;;;25.55;15.77;;;14.00;99.90;;;;;;5025543;28;20052;-64
2022/10/29 04:09:29;;;;;;;22.30;14.98;;;14.00;99.90;;;;;;5028324;28;20395;-63
2022/10/29 04:11:55;;;;;;;22.80;15.68;;;14.00;99.90;;;;;;5029261;28;20022;-63
2022/10/29 04:14:20;;;;;;;21.60;15.60;;;14.00;99.90;;;;;;5026493;28;20068;-63
2022/10/29 04:16:46;;;;;;;24.92;15.68;;;14.10;99.90;;;;;;5026823;28;20381;-64
2022/10/29 04:19:12;;;;;;;22.45;14.98;;;14.10;99.90;;;;;;5027703;28;20545;-63
2022/10/29 04:21:37;;;;;;;26.27;14.73;;;14.00;99.90;;;;;;5030894;28;21184;-63
2022/10/29 04:24:04;;;;;;;25.83;14.63;;;14.10;99.90;;;;;;5020955;28;20548;-63
2022/10/29 04:26:29;;;;;;;20.63;14.30;;;14.10;99.90;;;;;;5026659;28;20120;-63
2022/10/29 04:28:55;;;;;;;24.30;14.00;;;14.10;99.90;;;;;;5025888;28;20105;-63
2022/10/29 04:31:20;;;;;;;17.15;11.85;;;14.10;99.90;;;;;;5020907;28;20084;-63
2022/10/29 04:33:46;;;;;;;18.13;10.73;;;14.20;99.90;;;;;;5027112;28;20097;-63
2022/10/29 04:36:11;;;;;;;13.48;9.73;;;14.20;99.90;;;;;;5027369;28;20584;-63
2022/10/29 04:38:38;;;;;;;13.20;10.32;;;14.20;99.90;;;;;;5021911;28;20029;-63
2022/10/29 04:41:03;;;;;;;20.35;14.15;;;14.20;99.90;;;;;;5026508;28;20091;-63
2022/10/29 04:43:30;;;;;;;21.25;15.13;;;14.20;99.90;;;;;;5031845;28;20421;-63
2022/10/29 04:45:57;;;;;;;23.33;16.38;;;14.20;99.90;;;;;;5031728;28;20049;-63
2022/10/29 04:48:24;;;;;;;24.35;14.75;;;14.20;99.90;;;;;;5029790;28;20029;-63
2022/10/29 04:50:49;;;;;;;22.42;14.70;;;14.20;99.90;;;;;;5028784;28;20109;-63
2022/10/29 04:53:16;;;;;;;16.85;12.43;;;14.20;99.90;;;;;;5022126;28;20124;-63
2022/10/29 04:55:42;;;;;;;14.23;10.38;;;14.20;99.90;;;;;;5023081;28;20024;-63
2022/10/29 04:58:13;;;;;;;13.80;9.43;;;14.20;99.90;;;;;;5029948;28;20033;-63
2022/10/29 05:00:39;;;;;;;13.80;10.20;;;14.30;99.90;;;;;;5021749;28;20363;-63
2022/10/29 05:03:04;;;;;;;14.40;9.60;;;14.30;99.90;;;;;;5026405;28;20032;-63
2022/10/29 05:05:30;;;;;;;16.92;9.13;;;14.30;99.90;;;;;;5012505;28;20030;-63
2022/10/29 05:08:00;;;;;;;14.70;9.57;;;14.30;99.90;;;;;;5025685;28;20038;-63
2022/10/29 05:10:28;;;;;;;15.18;9.77;;;14.30;99.90;;;;;;5024570;28;20021;-63
2022/10/29 05:12:57;;;;;;;12.18;9.52;;;14.30;99.90;;;;;;5040578;28;20076;-63
2022/10/29 05:15:23;;;;;;;11.98;9.07;;;14.40;99.90;;;;;;5028394;28;20172;-63
2022/10/29 05:17:49;;;;;;;12.55;9.32;;;14.30;99.90;;;;;;5015837;28;20444;-63
2022/10/29 05:20:14;;;;;;;17.17;10.48;;;14.30;99.90;;;;;;5042359;28;20893;-63
2022/10/29 05:22:40;;;;;;;13.75;9.75;;;14.30;99.90;;;;;;5027942;28;20444;-63
2022/10/29 05:25:05;;;;;;;14.60;9.45;;;14.30;99.90;;;;;;5027092;28;20022;-63
2022/10/29 05:27:31;;;;;;;12.73;8.20;;;14.30;99.90;;;;;;5022659;28;20630;-63
2022/10/29 05:29:56;;;;;;;12.15;8.55;;;14.30;99.90;;;;;;5032231;28;20121;-63
2022/10/29 05:32:22;;;;;;;11.07;8.02;;;14.30;99.90;;;;;;5029048;28;20025;-63
2022/10/29 05:34:47;;;;;;;9.85;7.30;;;14.30;99.90;;;;;;5034471;28;20025;-63
2022/10/29 05:37:13;;;;;;;11.88;8.93;;;14.30;99.90;;;;;;5021246;28;20037;-63
2022/10/29 05:39:38;;;;;;;11.50;9.10;;;14.30;99.90;;;;;;5034217;28;20060;-63
2022/10/29 05:42:05;;;;;;;13.55;8.98;;;14.30;99.90;;;;;;5034239;28;20478;-63
2022/10/29 05:44:30;;;;;;;16.23;10.25;;;14.30;99.90;;;;;;5022327;28;20049;-63
2022/10/29 05:46:56;;;;;;;18.15;10.85;;;14.30;99.90;;;;;;5024037;28;20035;-63
2022/10/29 05:49:21;;;;;;;11.38;9.27;;;14.30;99.90;;;;;;5032643;28;20086;-63
2022/10/29 05:51:47;;;;;;;12.55;9.65;;;14.30;99.90;;;;;;5030898;28;20429;-63
2022/10/29 05:54:12;;;;;;;17.60;10.85;;;14.30;99.90;;;;;;5033423;28;20030;-63
2022/10/29 05:56:38;;;;;;;15.30;9.77;;;14.30;99.90;;;;;;5033524;28;20475;-63
2022/10/29 05:59:03;;;;;;;13.90;9.40;;;14.30;99.90;;;;;;5029149;28;20629;-63
2022/10/29 06:01:29;;;;;;;12.57;8.43;;;14.30;99.90;;;;;;5018933;28;20036;-63
2022/10/29 06:03:54;;;;;;;9.77;8.05;;;14.30;99.90;;;;;;5025899;28;20029;-63
2022/10/29 06:06:20;;;;;;;10.60;7.57;;;14.30;99.90;;;;;;5025895;28;20032;-63
2022/10/29 06:08:45;;;;;;;10.55;6.95;;;14.30;99.90;;;;;;5031528;28;20029;-63
2022/10/29 06:11:11;;;;;;;7.75;6.72;;;14.30;99.90;;;;;;5025367;28;20470;-63
2022/10/29 06:13:36;;;;;;;11.80;7.32;;;14.30;99.90;;;;;;5030955;28;20076;-64
2022/10/29 06:16:02;;;;;;;9.25;6.95;;;14.30;99.90;;;;;;5029106;28;20442;-63
2022/10/29 06:18:28;;;;;;;10.95;6.95;;;14.30;99.90;;;;;;5032670;28;20545;-63
2022/10/29 06:20:56;;;;;;;13.82;7.15;;;14.30;99.90;;;;;;5022732;28;20060;-63
2022/10/29 06:23:22;;;;;;;12.00;8.00;;;14.40;99.90;;;;;;5030995;28;20055;-63
2022/10/29 06:25:47;;;;;;;15.30;8.18;;;14.40;99.90;;;;;;5031167;28;20079;-63
2022/10/29 06:28:17;;;;;;;16.45;9.88;;;14.40;99.90;;;;;;5030408;28;20108;-63
2022/10/29 06:30:48;;;;;;;18.00;10.77;;;14.40;99.90;;;;;;5029201;28;20033;-63
2022/10/29 06:33:14;;;;;;;17.20;10.50;;;14.40;99.90;;;;;;5030641;28;20024;-63
2022/10/29 06:35:39;;;;;;;12.73;9.10;;;14.40;99.90;;;;;;5029894;28;20025;-63
2022/10/29 06:38:05;;;;;;;15.15;9.30;;;14.40;99.90;;;;;;5028926;28;20048;-63
2022/10/29 06:40:30;;;;;;;13.25;8.60;;;14.50;99.90;;;;;;5031831;28;20071;-63
2022/10/29 06:43:04;;;;;;;21.77;13.73;;;14.50;99.90;;;;;;5031975;28;20079;-63
2022/10/29 06:45:31;;;;;;;22.42;14.82;;;14.50;99.90;;;;;;5029402;28;20049;-64
2022/10/29 06:47:56;;;;;;;20.50;13.80;;;14.50;99.90;;;;;;5032130;28;20333;-63
2022/10/29 06:50:22;;;;;;;18.50;14.27;;;14.50;99.90;;;;;;5031369;28;20037;-63
2022/10/29 06:52:58;;;;;;;25.05;13.57;;;14.50;99.90;;;;;;5031279;28;20018;-63
2022/10/29 06:55:24;;;;;;;15.30;11.20;;;14.50;99.90;;;;;;5028975;28;20025;-63
2022/10/29 06:58:00;;;;;;;23.35;13.40;;;14.50;99.90;;;;;;5027357;28;20108;-63
2022/10/29 07:00:27;;;;;;;16.25;12.25;;;14.60;99.90;;;;;;5030847;28;20450;-63
2022/10/29 07:02:52;;;;;;;22.63;14.93;;;14.50;99.90;;;;;;5031495;28;20124;-63
2022/10/29 07:05:18;;;;;;;23.38;14.75;;;14.50;99.90;;;;;;5031742;28;20093;-63
2022/10/29 07:07:43;;;;;;;23.90;14.30;;;14.60;99.90;;;;;;5031553;28;20032;-63
2022/10/29 07:10:09;;;;;;;26.50;16.52;;;14.50;99.90;;;;;;5031244;28;20108;-63
2022/10/29 07:12:44;;;;;;;21.65;15.65;;;14.60;99.90;;;;;;5030072;28;20385;-63
2022/10/29 07:15:11;;;;;;;21.92;15.98;;;14.60;99.90;;;;;;5020756;28;20044;-63
2022/10/29 07:17:36;;;;;;;22.52;15.65;;;14.60;99.90;;;;;;5031821;28;20017;-63
2022/10/29 07:20:04;;;;;;;30.42;17.10;;;14.60;99.90;;;;;;5032481;28;20036;-63
2022/10/29 07:22:29;;;;;;;29.33;16.33;;;14.70;99.90;;;;;;5031748;28;20029;-63
2022/10/29 07:24:55;;;;;;;22.42;14.93;;;14.70;99.90;;;;;;5032622;28;20083;-63
2022/10/29 07:27:20;;;;;;;24.17;15.88;;;14.70;99.90;;;;;;5026372;28;20378;-63
2022/10/29 07:29:46;;;;;;;23.30;15.32;;;14.70;99.90;;;;;;5032616;28;20079;-63
2022/10/29 07:32:11;;;;;;;23.90;16.20;;;14.80;99.90;;;;;;5029795;28;20382;-63
2022/10/29 07:34:37;;;;;;;22.02;16.08;;;14.80;99.90;;;;;;5030102;28;20029;-63
2022/10/29 07:37:02;;;;;;;24.25;16.77;;;14.90;99.90;;;;;;5016849;28;20475;-63
2022/10/29 07:39:28;;;;;;;29.95;15.85;;;14.90;99.90;;;;;;5032510;28;20021;-63
2022/10/29 07:41:53;;;;;;;29.02;15.90;;;15.00;99.90;;;;;;5026562;28;20029;-63
2022/10/29 07:44:19;;;;;;;23.52;15.05;;;15.00;99.90;;;;;;5029607;28;20038;-63
2022/10/29 07:46:52;;;;;;;21.48;15.70;;;15.00;99.90;;;;;;5030761;28;20108;-63
2022/10/29 07:49:17;;;;;;;30.48;16.48;;;15.10;99.90;;;;;;5031991;28;20036;-63
2022/10/29 07:51:43;;;;;;;24.13;14.52;;;15.20;99.90;;;;;;5029752;28;20026;-63
2022/10/29 07:54:08;;;;;;;27.00;16.10;;;15.20;99.90;;;;;;5029586;28;20034;-64
2022/10/29 07:56:34;;;;;;;22.08;14.98;;;15.20;99.90;;;;;;5018448;28;20026;-63
2022/10/29 07:59:00;;;;;;;25.33;15.50;;;15.30;99.90;;;;;;5028832;28;20056;-64
2022/10/29 08:01:25;;;;;;;18.42;14.55;;;15.30;99.90;;;;;;5029926;28;20072;-63
2022/10/29 08:03:51;;;;;;;23.73;16.08;;;15.40;99.90;;;;;;5023492;28;20463;-63
2022/10/29 08:06:16;;;;;;;20.58;14.60;;;15.40;99.90;;;;;;5013162;28;20026;-63
2022/10/29 08:08:42;;;;;;;23.73;15.15;;;15.40;99.90;;;;;;5031918;28;20460;-63
2022/10/29 08:11:07;;;;;;;22.40;14.93;;;15.50;99.90;;;;;;5030838;28;20037;-63
2022/10/29 08:13:33;;;;;;;23.58;15.18;;;15.50;99.90;;;;;;5020108;28;20026;-63
2022/10/29 08:15:58;;;;;;;24.85;16.02;;;15.60;99.90;;;;;;5030808;28;20113;-63
2022/10/29 08:18:24;;;;;;;24.45;15.05;;;15.60;99.90;;;;;;5012629;28;20108;-63
2022/10/29 08:20:50;;;;;;;23.40;14.63;;;15.70;99.90;;;;;;5027886;28;20448;-63
2022/10/29 08:23:15;;;;;;;22.83;15.40;;;15.70;99.90;;;;;;5023874;28;20026;-64
2022/10/29 08:25:41;;;;;;;26.55;16.30;;;15.80;99.90;;;;;;5029049;28;20029;-64
2022/10/29 08:28:13;;;;;;;25.67;15.45;;;15.90;99.90;;;;;;5030549;28;20065;-63
2022/10/29 08:30:39;;;;;;;24.35;14.68;;;16.00;99.90;;;;;;5030237;28;20061;-64
2022/10/29 08:33:05;;;;;;;19.48;12.75;;;16.10;99.90;;;;;;5031964;28;20559;-63
2022/10/29 08:35:32;;;;;;;21.23;12.77;;;16.20;99.90;;;;;;5025999;28;20079;-64
2022/10/29 08:37:57;;;;;;;21.33;13.02;;;16.30;99.90;;;;;;5024756;28;20022;-63
2022/10/29 08:41:00;;;;;;;21.02;14.00;;;16.50;99.90;;;;;;5029039;28;20037;-63
2022/10/29 08:43:29;;;;;;;23.92;13.68;;;16.60;99.90;;;;;;5032873;28;20393;-64
2022/10/29 08:45:55;;;;;;;21.00;12.07;;;16.60;99.90;;;;;;5034215;28;20045;-64
2022/10/29 08:48:34;;;;;;;20.60;12.63;;;16.70;99.90;;;;;;5022565;28;20025;-63
2022/10/29 08:51:05;;;;;;;15.85;11.48;;;16.80;99.90;;;;;;5022248;28;20029;-63
2022/10/29 08:53:38;;;;;;;17.00;11.52;;;16.80;99.90;;;;;;5035376;28;20021;-64
2022/10/29 08:56:10;;;;;;;20.30;11.45;;;17.00;99.90;;;;;;5033954;28;20108;-64
2022/10/29 08:58:51;;;;;;;19.08;11.85;;;17.00;99.90;;;;;;5035218;28;20021;-63
2022/10/29 09:01:19;;;;;;;17.02;11.38;;;17.10;99.90;;;;;;5028533;28;20097;-63
2022/10/29 09:03:44;;;;;;;21.10;12.00;;;17.20;99.90;;;;;;5034909;28;20113;-63
2022/10/29 09:06:16;;;;;;;20.15;12.10;;;17.30;99.90;;;;;;5021970;28;20447;-63
2022/10/29 09:09:05;;;;;;;16.50;12.10;;;17.30;99.90;;;;;;5021577;28;20541;-64
2022/10/29 09:12:08;;;;;;;21.98;11.90;;;17.30;99.90;;;;;;5032161;28;20033;-64
2022/10/29 09:15:11;;;;;;;23.42;10.93;;;17.30;99.90;;;;;;5023536;28;20043;-63
2022/10/29 09:18:00;;;;;;;19.23;11.13;;;17.30;99.90;;;;;;5034528;28;20041;-64
2022/10/29 09:20:35;;;;;;;24.48;10.98;;;17.30;99.90;;;;;;5024687;28;20022;-63
2022/10/29 09:23:30;;;;;;;19.23;12.88;;;17.30;99.90;;;;;;5021185;28;20022;-64
2022/10/29 09:26:02;;;;;;;15.32;11.20;;;17.30;99.90;;;;;;5049498;28;20025;-64
2022/10/29 09:28:59;;;;;;;19.40;11.80;;;17.30;99.90;;;;;;5034313;28;20030;-64
2022/10/29 09:31:34;;;;;;;22.92;12.93;;;17.30;99.90;;;;;;5034430;28;20540;-63
2022/10/29 09:34:08;;;;;;;18.20;11.35;;;17.30;99.90;;;;;;5034256;28;20025;-63
2022/10/29 09:36:33;;;;;;;18.15;11.13;;;17.40;99.90;;;;;;5033726;28;20488;-64
2022/10/29 09:39:07;;;;;;;14.50;10.48;;;17.40;99.90;;;;;;5034739;28;20017;-64
2022/10/29 09:41:33;;;;;;;15.52;10.25;;;17.50;99.90;;;;;;5032409;28;20029;-64
2022/10/29 09:44:34;;;;;;;16.40;11.32;;;17.60;99.90;;;;;;5034278;28;20104;-63
2022/10/29 09:47:15;;;;;;;18.02;11.93;;;17.70;99.90;;;;;;5022441;28;20026;-64
2022/10/29 09:50:08;;;;;;;13.98;10.00;;;17.70;99.90;;;;;;5033539;28;20041;-64
2022/10/29 09:52:38;;;;;;;15.90;10.73;;;17.70;99.90;;;;;;5033390;28;20022;-64
2022/10/29 09:55:06;;;;;;;16.58;11.18;;;17.70;99.90;;;;;;5032700;28;20048;-64
2022/10/29 09:57:34;;;;;;;19.33;12.38;;;17.70;99.90;;;;;;5033393;28;20040;-64
2022/10/29 10:00:03;;;;;;;18.75;12.05;;;17.80;99.90;;;;;;5033672;28;20470;-64
2022/10/29 10:03:01;;;;;;;21.15;11.70;;;17.80;99.90;;;;;;5024632;28;20026;-64
2022/10/29 10:05:32;;;;;;;13.50;9.60;;;17.80;99.90;;;;;;5020636;28;20504;-64
2022/10/29 10:08:10;;;;;;;20.85;12.32;;;17.90;99.90;;;;;;5021770;28;20045;-64
2022/10/29 10:10:52;;;;;;;16.70;10.70;;;17.90;99.90;;;;;;5023498;28;20026;-64
2022/10/29 10:13:22;;;;;;;16.75;11.50;;;17.80;99.90;;;;;;5026154;28;20053;-64
2022/10/29 10:15:54;;;;;;;20.77;12.95;;;17.90;99.90;;;;;;5020537;28;20024;-63
2022/10/29 10:18:23;;;;;;;20.70;11.32;;;17.90;99.90;;;;;;5021298;28;20105;-64
2022/10/29 10:21:03;;;;;;;17.10;11.30;;;18.00;99.90;;;;;;5020537;28;20044;-64
2022/10/29 10:23:37;;;;;;;19.30;10.93;;;18.10;99.90;;;;;;5026618;28;20034;-63
2022/10/29 10:26:25;;;;;;;17.02;10.15;;;18.30;99.90;;;;;;5021039;28;20396;-63
2022/10/29 10:29:12;;;;;;;19.15;10.40;;;18.80;99.90;;;;;;5033449;28;20440;-64
2022/10/29 10:31:39;;;;;;;13.35;9.48;;;19.90;99.90;;;;;;5032953;28;20033;-64
2022/10/29 10:34:14;;;;;;;16.92;9.63;;;20.60;99.90;;;;;;5020940;28;20493;-64
2022/10/29 10:36:51;;;;;;;11.80;8.70;;;20.80;99.90;;;;;;5032934;28;20030;-64
2022/10/29 10:39:26;;;;;;;17.38;9.55;;;20.70;99.30;;;;;;5032281;28;20025;-64
2022/10/29 10:41:52;;;;;;;18.10;9.60;;;21.10;99.50;;;;;;5032126;28;20104;-64
2022/10/29 10:44:20;;;;;;;12.35;8.27;;;22.30;97.20;;;;;;5032699;28;20430;-64
2022/10/29 10:46:48;;;;;;;15.35;8.68;;;23.00;95.60;;;;;;5032916;28;20503;-64
2022/10/29 10:49:17;;;;;;;12.50;8.23;;;24.20;93.40;;;;;;5021068;28;20037;-64
2022/10/29 10:51:45;;;;;;;;;;;25.30;90.10;;;;;;5032748;28;20397;-64
2022/10/29 10:54:36;;;;;;;10.75;7.07;;;26.50;87.10;;;;;;5032984;28;19960;-65
2022/10/29 10:57:20;;;;;;;13.02;6.13;;;26.50;81.20;;;;;;5024234;28;20021;-64
2022/10/29 10:59:48;;;;;;;10.25;5.97;;;26.60;81.60;;;;;;5031222;28;20025;-64
2022/10/29 11:02:42;;;;;;;12.73;7.50;;;27.00;78.60;;;;;;5012794;28;20018;-64
2022/10/29 11:05:23;;;;;;;8.73;6.07;;;28.20;73.20;;;;;;5017740;28;20014;-64
2022/10/29 11:08:11;;;;;;;10.43;6.30;;;28.80;70.00;;;;;;5019690;28;20068;-65
2022/10/29 11:10:50;;;;;;;13.20;7.10;;;28.90;68.10;;;;;;5032957;28;20539;-65
2022/10/29 11:13:30;;;;;;;10.55;6.40;;;27.80;68.10;;;;;;5032231;28;20033;-64
2022/10/29 11:16:30;;;;;;;9.98;5.95;;;28.10;69.20;;;;;;5032342;28;20452;-64
2022/10/29 11:19:04;;;;;;;11.07;6.68;;;29.40;65.80;;;;;;5032509;28;20025;-64
2022/10/29 11:21:47;;;;;;;8.13;5.78;;;29.90;62.00;;;;;;5031093;28;20021;-64
2022/10/29 11:24:17;;;;;;;9.20;5.55;;;29.80;61.30;;;;;;5031075;28;20554;-65
2022/10/29 11:27:09;;;;;;;13.35;6.70;;;29.20;63.40;;;;;;5028826;28;20038;-65
2022/10/29 11:29:57;;;;;;;11.43;6.07;;;28.70;64.20;;;;;;5031135;28;20018;-65
2022/10/29 11:32:29;;;;;;;12.32;7.30;;;29.00;64.20;;;;;;5031417;28;20030;-65
2022/10/29 11:35:21;;;;;;;11.63;7.70;;;29.10;62.20;;;;;;5028501;28;20538;-65
2022/10/29 11:38:00;;;;;;;13.82;8.63;;;28.20;63.50;;;;;;5031113;28;20029;-65
2022/10/29 11:40:31;;;;;;;12.50;7.80;;;27.70;65.30;;;;;;5030064;28;20045;-64
2022/10/29 11:42:56;;;;;;;14.65;9.00;;;27.10;67.60;;;;;;5030669;28;20056;-64
2022/10/29 11:45:39;;;;;;;14.68;7.95;;;26.60;68.50;;;;;;5031197;28;20092;-64
2022/10/29 11:48:44;;;;;;;10.07;8.02;;;26.20;70.50;;;;;;5030583;28;20026;-64
2022/10/29 11:51:28;;;;;;;11.57;8.00;;;25.60;72.90;;;;;;5028662;28;20032;-64
2022/10/29 11:54:15;;;;;;;12.68;9.40;;;25.20;74.30;;;;;;5027046;28;20033;-64
2022/10/29 11:56:49;;;;;;;13.82;8.30;;;25.00;75.30;;;;;;5027212;28;20118;-64
2022/10/29 11:59:30;;;;;;;11.48;8.20;;;25.10;76.20;;;;;;5030484;28;20022;-64
2022/10/29 12:02:17;;;;;;;13.68;8.25;;;25.30;76.30;;;;;;5025371;28;20573;-64
2022/10/29 12:05:18;;;;;;;16.67;8.93;;;25.60;75.40;;;;;;5027256;28;20552;-64
2022/10/29 12:08:24;;;;;;;12.63;8.55;;;25.60;75.10;;;;;;5027748;28;20033;-64
2022/10/29 12:10:53;;;;;;;16.60;8.38;;;25.30;75.70;;;;;;5020669;28;20022;-64
2022/10/29 12:13:28;;;;;;;12.70;7.78;;;25.00;76.60;;;;;;5026818;28;20022;-64
2022/10/29 12:16:18;;;;;;;17.05;8.77;;;25.10;76.80;;;;;;5034453;28;20029;-64
2022/10/29 12:18:54;;;;;;;17.05;9.02;;;25.20;77.20;;;;;;5033733;28;20028;-64
2022/10/29 12:21:46;;;;;;;10.52;7.97;;;25.80;76.80;;;;;;5034714;28;20103;-65
2022/10/29 12:24:17;;;;;;;11.75;8.02;;;26.50;74.80;;;;;;5029737;28;20017;-64
2022/10/29 12:27:00;;;;;;;15.60;8.10;;;26.70;72.60;;;;;;5023390;28;20038;-64
2022/10/29 12:29:46;;;;;;;11.40;7.28;;;27.50;71.50;;;;;;5015862;28;20048;-64
2022/10/29 12:32:12;;;;;;;11.57;6.68;;;28.60;68.70;;;;;;5033530;28;20056;-64
2022/10/29 12:34:53;;;;;;;10.60;6.57;;;29.40;65.80;;;;;;5035810;28;20061;-64
2022/10/29 12:37:27;;;;;;;10.43;5.93;;;30.20;62.20;;;;;;5023370;28;20014;-64
2022/10/29 12:40:04;;;;;;;9.25;5.93;;;30.60;60.10;;;;;;5035405;28;20025;-65
2022/10/29 12:42:30;;;;;;;9.07;5.00;;;30.40;58.30;;;;;;5035464;28;20030;-64
2022/10/29 12:44:55;;;;;;;9.27;4.80;;;30.50;59.00;;;;;;5034887;28;20082;-64
2022/10/29 12:47:55;;;;;;;8.80;4.90;;;30.60;58.70;;;;;;5035184;28;20053;-64
2022/10/29 12:50:33;;;;;;;9.10;4.20;;;30.50;58.90;;;;;;5021724;28;20448;-65
2022/10/29 12:53:04;;;;;;;8.98;4.72;;;30.90;59.00;;;;;;5033514;28;20029;-65
2022/10/29 12:55:30;;;;;;;8.18;4.63;;;31.60;56.80;;;;;;5035228;28;20025;-65
2022/10/29 12:57:56;;;;;;;9.75;4.82;;;32.00;55.10;;;;;;5018298;28;20021;-65